UAL1992 KPWM-KIAD
Flight info
| Callsign | UAL1992 |
|---|---|
| Flight time | N/A |
| Altitude | 38000 |
| Route | NUBLE4 BAF HYPER9 |
| Aircraft | B752/M-SDE2E3FGHIJ3J4J7RWXY/LB1 |
Departure
| Time | 2026-05-05 21:24 |
|---|---|
| Airport | Portland International Jetport (KPWM) |
Arrival
| Time | N/A |
|---|---|
| Airport | Washington Dulles International Airport (KIAD) |
| Time | Latitude | Longitude | Altitude | Speed | Heading |
|---|---|---|---|---|---|
| 2026-05-05 21:07 | 43.64663 | -70.30952 | 63 ft | 0 kts | 5° |
| 2026-05-05 21:13 | 43.64653 | -70.30952 | 62 ft | 2 kts | 5° |
| 2026-05-05 21:14 | 43.64638 | -70.30954 | 62 ft | 2 kts | 5° |
| 2026-05-05 21:14 | 43.64623 | -70.30956 | 62 ft | 2 kts | 18° |
| 2026-05-05 21:14 | 43.64610 | -70.30965 | 63 ft | 2 kts | 37° |
| 2026-05-05 21:14 | 43.64600 | -70.30980 | 63 ft | 2 kts | 54° |
| 2026-05-05 21:15 | 43.64593 | -70.30997 | 63 ft | 2 kts | 72° |
| 2026-05-05 21:15 | 43.64590 | -70.31017 | 64 ft | 2 kts | 89° |
| 2026-05-05 21:15 | 43.64591 | -70.31027 | 64 ft | 1 kts | 97° |
| 2026-05-05 21:15 | 43.64592 | -70.31036 | 64 ft | 0 kts | 97° |
| 2026-05-05 21:16 | 43.64592 | -70.31044 | 64 ft | 0 kts | 97° |
| 2026-05-05 21:16 | 43.64593 | -70.31051 | 64 ft | 0 kts | 97° |
| 2026-05-05 21:16 | 43.64594 | -70.31058 | 64 ft | 0 kts | 97° |
| 2026-05-05 21:16 | 43.64595 | -70.31065 | 65 ft | 0 kts | 97° |
| 2026-05-05 21:17 | 43.64595 | -70.31072 | 65 ft | 0 kts | 97° |
| 2026-05-05 21:17 | 43.64597 | -70.31080 | 65 ft | 0 kts | 97° |
| 2026-05-05 21:17 | 43.64597 | -70.31087 | 65 ft | 0 kts | 97° |
| 2026-05-05 21:17 | 43.64598 | -70.31092 | 65 ft | 0 kts | 97° |
| 2026-05-05 21:19 | 43.64598 | -70.31091 | 65 ft | 2 kts | 97° |
| 2026-05-05 21:20 | 43.64588 | -70.30975 | 63 ft | 18 kts | 96° |
| 2026-05-05 21:20 | 43.64574 | -70.30785 | 58 ft | 20 kts | 96° |
| 2026-05-05 21:20 | 43.64561 | -70.30599 | 52 ft | 15 kts | 95° |
| 2026-05-05 21:20 | 43.64555 | -70.30460 | 49 ft | 14 kts | 82° |
| 2026-05-05 21:21 | 43.64583 | -70.30321 | 44 ft | 16 kts | 76° |
| 2026-05-05 21:21 | 43.64583 | -70.30160 | 39 ft | 17 kts | 96° |
| 2026-05-05 21:21 | 43.64571 | -70.30009 | 34 ft | 12 kts | 96° |
| 2026-05-05 21:21 | 43.64552 | -70.29936 | 31 ft | 6 kts | 138° |
| 2026-05-05 21:22 | 43.64512 | -70.29919 | 32 ft | 0 kts | 177° |
| 2026-05-05 21:22 | 43.64491 | -70.29918 | 32 ft | 9 kts | 178° |
| 2026-05-05 21:23 | 43.64425 | -70.29931 | 34 ft | 8 kts | 222° |
| 2026-05-05 21:23 | 43.64411 | -70.30014 | 36 ft | 10 kts | 268° |
| 2026-05-05 21:23 | 43.64411 | -70.30020 | 37 ft | 0 kts | 268° |
| 2026-05-05 21:23 | 43.64411 | -70.30023 | 37 ft | 3 kts | 268° |
| 2026-05-05 21:24 | 43.64433 | -70.30424 | 49 ft | 88 kts | 275° |
| 2026-05-05 21:24 | 43.64525 | -70.31661 | 179 ft | 160 kts | 268° |
| 2026-05-05 21:24 | 43.64687 | -70.33183 | 1133 ft | 169 kts | 269° |
| 2026-05-05 21:24 | 43.64852 | -70.34712 | 2056 ft | 154 kts | 263° |
| 2026-05-05 21:25 | 43.64870 | -70.36179 | 2453 ft | 162 kts | 261° |
| 2026-05-05 21:25 | 43.64892 | -70.37820 | 2783 ft | 180 kts | 263° |
| 2026-05-05 21:25 | 43.64933 | -70.39656 | 3089 ft | 202 kts | 264° |
| 2026-05-05 21:25 | 43.64996 | -70.41652 | 3564 ft | 217 kts | 265° |
| 2026-05-05 21:26 | 43.65049 | -70.43800 | 4045 ft | 231 kts | 259° |
| 2026-05-05 21:26 | 43.64521 | -70.45849 | 4580 ft | 234 kts | 230° |
| 2026-05-05 21:26 | 43.63272 | -70.47239 | 5411 ft | 237 kts | 214° |
| 2026-05-05 21:26 | 43.61872 | -70.48461 | 6209 ft | 239 kts | 217° |
| 2026-05-05 21:27 | 43.60485 | -70.49721 | 6953 ft | 243 kts | 217° |
| 2026-05-05 21:27 | 43.59075 | -70.51005 | 7683 ft | 248 kts | 217° |
| 2026-05-05 21:27 | 43.57639 | -70.52317 | 8455 ft | 250 kts | 218° |
| 2026-05-05 21:27 | 43.56179 | -70.53655 | 9145 ft | 255 kts | 219° |
| 2026-05-05 21:28 | 43.54709 | -70.55001 | 9931 ft | 257 kts | 219° |
| 2026-05-05 21:28 | 43.53198 | -70.56386 | 10480 ft | 268 kts | 217° |
| 2026-05-05 21:28 | 43.51438 | -70.57472 | 10698 ft | 297 kts | 202° |
| 2026-05-05 21:28 | 43.49367 | -70.58301 | 10997 ft | 316 kts | 202° |
| 2026-05-05 21:29 | 43.47223 | -70.59187 | 11271 ft | 335 kts | 202° |
| 2026-05-05 21:29 | 43.44910 | -70.60134 | 11515 ft | 355 kts | 202° |
| 2026-05-05 21:29 | 43.42509 | -70.61112 | 12133 ft | 360 kts | 201° |
| 2026-05-05 21:29 | 43.40106 | -70.62090 | 12748 ft | 366 kts | 201° |
| 2026-05-05 21:30 | 43.37676 | -70.63081 | 13485 ft | 370 kts | 201° |
| 2026-05-05 21:30 | 43.35185 | -70.64096 | 14156 ft | 373 kts | 201° |
| 2026-05-05 21:30 | 43.32713 | -70.65104 | 14762 ft | 377 kts | 200° |
| 2026-05-05 21:30 | 43.30170 | -70.66139 | 15374 ft | 381 kts | 200° |
| 2026-05-05 21:31 | 43.27628 | -70.67175 | 16044 ft | 384 kts | 200° |
| 2026-05-05 21:31 | 43.25049 | -70.68223 | 16602 ft | 388 kts | 200° |
| 2026-05-05 21:31 | 43.22482 | -70.69266 | 17261 ft | 389 kts | 199° |
| 2026-05-05 21:31 | 43.19898 | -70.70316 | 17846 ft | 392 kts | 199° |
| 2026-05-05 21:32 | 43.17286 | -70.71422 | 18365 ft | 395 kts | 203° |
| 2026-05-05 21:32 | 43.14782 | -70.73031 | 18882 ft | 396 kts | 210° |
| 2026-05-05 21:32 | 43.12338 | -70.74772 | 19403 ft | 400 kts | 210° |
| 2026-05-05 21:32 | 43.09865 | -70.76523 | 19949 ft | 403 kts | 210° |
| 2026-05-05 21:33 | 43.07375 | -70.78297 | 20411 ft | 408 kts | 210° |
| 2026-05-05 21:33 | 43.04853 | -70.80097 | 20984 ft | 409 kts | 210° |
| 2026-05-05 21:33 | 43.02331 | -70.81898 | 21389 ft | 415 kts | 210° |
| 2026-05-05 21:33 | 42.99770 | -70.83728 | 21944 ft | 417 kts | 211° |
| 2026-05-05 21:34 | 42.97169 | -70.85586 | 22320 ft | 423 kts | 211° |
| 2026-05-05 21:34 | 42.94580 | -70.87434 | 22848 ft | 425 kts | 211° |
| 2026-05-05 21:34 | 42.91931 | -70.89324 | 23243 ft | 430 kts | 211° |
| 2026-05-05 21:34 | 42.89270 | -70.91219 | 23660 ft | 434 kts | 211° |
| 2026-05-05 21:35 | 42.86606 | -70.93115 | 24196 ft | 435 kts | 211° |
| 2026-05-05 21:35 | 42.83889 | -70.95016 | 24561 ft | 441 kts | 208° |
| 2026-05-05 21:35 | 42.81049 | -70.96532 | 25065 ft | 444 kts | 203° |
| 2026-05-05 21:35 | 42.78120 | -70.97974 | 25423 ft | 448 kts | 204° |
| 2026-05-05 21:36 | 42.75176 | -70.99417 | 25831 ft | 450 kts | 204° |
| 2026-05-05 21:36 | 42.72209 | -71.00867 | 26123 ft | 455 kts | 204° |
| 2026-05-05 21:36 | 42.69260 | -71.02306 | 26515 ft | 456 kts | 203° |
| 2026-05-05 21:36 | 42.66271 | -71.03758 | 26868 ft | 459 kts | 204° |
| 2026-05-05 21:37 | 42.63225 | -71.05238 | 27177 ft | 462 kts | 203° |
| 2026-05-05 21:37 | 42.60202 | -71.06702 | 27517 ft | 465 kts | 203° |
| 2026-05-05 21:37 | 42.57227 | -71.08363 | 27793 ft | 465 kts | 211° |
| 2026-05-05 21:37 | 42.54501 | -71.10626 | 28147 ft | 462 kts | 219° |
| 2026-05-05 21:38 | 42.52049 | -71.13490 | 28400 ft | 461 kts | 229° |
| 2026-05-05 21:38 | 42.50021 | -71.16802 | 28732 ft | 461 kts | 237° |
| 2026-05-05 21:38 | 42.48415 | -71.20541 | 29095 ft | 458 kts | 247° |
| 2026-05-05 21:38 | 42.47291 | -71.24509 | 29499 ft | 456 kts | 254° |
| 2026-05-05 21:39 | 42.46360 | -71.28598 | 29993 ft | 453 kts | 255° |
| 2026-05-05 21:39 | 42.45450 | -71.32695 | 30262 ft | 456 kts | 255° |
| 2026-05-05 21:39 | 42.44567 | -71.36803 | 30787 ft | 452 kts | 256° |
| 2026-05-05 21:39 | 42.43702 | -71.40887 | 31235 ft | 450 kts | 256° |
| 2026-05-05 21:40 | 42.42854 | -71.44946 | 31554 ft | 450 kts | 256° |
| 2026-05-05 21:40 | 42.42012 | -71.49007 | 31904 ft | 449 kts | 256° |
| 2026-05-05 21:40 | 42.41170 | -71.53072 | 32368 ft | 446 kts | 256° |
| 2026-05-05 21:40 | 42.40338 | -71.57106 | 32648 ft | 446 kts | 257° |
| 2026-05-05 21:41 | 42.39508 | -71.61132 | 33074 ft | 443 kts | 257° |
| 2026-05-05 21:41 | 42.38680 | -71.65140 | 33422 ft | 442 kts | 256° |
| 2026-05-05 21:41 | 42.37854 | -71.69136 | 33828 ft | 439 kts | 256° |
| 2026-05-05 21:41 | 42.37039 | -71.73089 | 33968 ft | 442 kts | 256° |
| 2026-05-05 21:42 | 42.36214 | -71.77068 | 34358 ft | 439 kts | 256° |
| 2026-05-05 21:42 | 42.35387 | -71.81054 | 34607 ft | 439 kts | 257° |
| 2026-05-05 21:42 | 42.34568 | -71.85007 | 34964 ft | 436 kts | 257° |
| 2026-05-05 21:42 | 42.33747 | -71.88955 | 35102 ft | 438 kts | 257° |
| 2026-05-05 21:43 | 42.32927 | -71.92883 | 35413 ft | 435 kts | 257° |
| 2026-05-05 21:43 | 42.32115 | -71.96773 | 35678 ft | 434 kts | 257° |
| 2026-05-05 21:43 | 42.31296 | -72.00687 | 35842 ft | 434 kts | 257° |
| 2026-05-05 21:43 | 42.30470 | -72.04633 | 35940 ft | 436 kts | 257° |
| 2026-05-05 21:44 | 42.29642 | -72.08577 | 36120 ft | 435 kts | 257° |
| 2026-05-05 21:44 | 42.28833 | -72.12425 | 36448 ft | 431 kts | 257° |
| 2026-05-05 21:44 | 42.27182 | -72.20245 | 36711 ft | 431 kts | 256° |
| 2026-05-05 21:45 | 42.25537 | -72.28012 | 36842 ft | 433 kts | 257° |
| 2026-05-05 21:45 | 42.24707 | -72.31924 | 36985 ft | 433 kts | 256° |
| 2026-05-05 21:45 | 42.23871 | -72.35851 | 37094 ft | 433 kts | 256° |
| 2026-05-05 21:46 | 42.22214 | -72.43614 | 37480 ft | 430 kts | 256° |
| 2026-05-05 21:46 | 42.20558 | -72.51349 | 37803 ft | 432 kts | 256° |
| 2026-05-05 21:47 | 42.18898 | -72.59068 | 37816 ft | 429 kts | 256° |
| 2026-05-05 21:47 | 42.17231 | -72.66788 | 37817 ft | 427 kts | 254° |
| 2026-05-05 21:48 | 42.14624 | -72.73907 | 37837 ft | 432 kts | 237° |
| 2026-05-05 21:48 | 42.10994 | -72.80344 | 37823 ft | 432 kts | 235° |
| 2026-05-05 21:49 | 42.07314 | -72.86734 | 37824 ft | 432 kts | 235° |
| 2026-05-05 21:49 | 42.03605 | -72.93100 | 37823 ft | 432 kts | 235° |
| 2026-05-05 21:50 | 41.99884 | -72.99450 | 37827 ft | 432 kts | 235° |
| 2026-05-05 21:50 | 41.96148 | -73.05801 | 37828 ft | 432 kts | 234° |
| 2026-05-05 21:51 | 41.92427 | -73.12102 | 37840 ft | 431 kts | 235° |
| 2026-05-05 21:51 | 41.88716 | -73.18372 | 37852 ft | 431 kts | 235° |
| 2026-05-05 21:52 | 41.83173 | -73.27711 | 37822 ft | 425 kts | 235° |
| 2026-05-05 21:53 | 41.79481 | -73.33918 | 37842 ft | 425 kts | 235° |
| 2026-05-05 21:53 | 41.75798 | -73.40108 | 37849 ft | 425 kts | 235° |
| 2026-05-05 21:54 | 41.72121 | -73.46275 | 37846 ft | 425 kts | 235° |
| 2026-05-05 21:54 | 41.68436 | -73.52441 | 37840 ft | 425 kts | 235° |
| 2026-05-05 21:55 | 41.64746 | -73.58602 | 37829 ft | 425 kts | 235° |
| 2026-05-05 21:55 | 41.61035 | -73.64786 | 37839 ft | 425 kts | 236° |
| 2026-05-05 21:56 | 41.57342 | -73.70930 | 37840 ft | 425 kts | 235° |
| 2026-05-05 21:56 | 41.53634 | -73.77084 | 37833 ft | 423 kts | 235° |
| 2026-05-05 21:56 | 41.51801 | -73.80113 | 37010 ft | 426 kts | 235° |
| 2026-05-05 21:57 | 41.49764 | -73.83051 | 36254 ft | 431 kts | 230° |
| 2026-05-05 21:57 | 41.47706 | -73.85834 | 35808 ft | 425 kts | 231° |
| 2026-05-05 21:57 | 41.45674 | -73.88592 | 35825 ft | 406 kts | 232° |
| 2026-05-05 21:58 | 41.41688 | -73.94000 | 35827 ft | 415 kts | 231° |
| 2026-05-05 21:58 | 41.37587 | -73.99529 | 35813 ft | 424 kts | 231° |
| 2026-05-05 21:59 | 41.33427 | -74.05119 | 35830 ft | 432 kts | 231° |
| 2026-05-05 21:59 | 41.29178 | -74.10809 | 35837 ft | 436 kts | 231° |
| 2026-05-05 22:00 | 41.24923 | -74.16496 | 35851 ft | 434 kts | 231° |
| 2026-05-05 22:00 | 41.20688 | -74.22154 | 35850 ft | 430 kts | 232° |
| 2026-05-05 22:01 | 41.17264 | -74.28413 | 35861 ft | 417 kts | 243° |
| 2026-05-05 22:01 | 41.14230 | -74.34929 | 35854 ft | 414 kts | 243° |
| 2026-05-05 22:02 | 41.11214 | -74.41438 | 35858 ft | 416 kts | 243° |
| 2026-05-05 22:02 | 41.08170 | -74.48016 | 35859 ft | 422 kts | 243° |
| 2026-05-05 22:03 | 41.05107 | -74.54627 | 35858 ft | 427 kts | 243° |
| 2026-05-05 22:03 | 41.01977 | -74.61369 | 35852 ft | 432 kts | 243° |
| 2026-05-05 22:04 | 40.98822 | -74.68152 | 35854 ft | 435 kts | 242° |
| 2026-05-05 22:04 | 40.95647 | -74.74964 | 35856 ft | 438 kts | 243° |
| 2026-05-05 22:05 | 40.92435 | -74.81836 | 35852 ft | 437 kts | 243° |
| 2026-05-05 22:05 | 40.89257 | -74.88618 | 35859 ft | 437 kts | 243° |
| 2026-05-05 22:06 | 40.86063 | -74.95418 | 35863 ft | 437 kts | 242° |
| 2026-05-05 22:06 | 40.82858 | -75.02228 | 35856 ft | 438 kts | 243° |
| 2026-05-05 22:07 | 40.79647 | -75.09036 | 35865 ft | 436 kts | 242° |
| 2026-05-05 22:07 | 40.76448 | -75.15802 | 35856 ft | 437 kts | 242° |
| 2026-05-05 22:08 | 40.73241 | -75.22571 | 35851 ft | 438 kts | 242° |
| 2026-05-05 22:08 | 40.69995 | -75.29406 | 35856 ft | 439 kts | 242° |
| 2026-05-05 22:09 | 40.66774 | -75.36174 | 35851 ft | 438 kts | 243° |
| 2026-05-05 22:09 | 40.63718 | -75.43085 | 35854 ft | 438 kts | 245° |
| 2026-05-05 22:10 | 40.60730 | -75.50034 | 35716 ft | 440 kts | 245° |
| 2026-05-05 22:10 | 40.59228 | -75.53515 | 35402 ft | 434 kts | 245° |
| 2026-05-05 22:10 | 40.57771 | -75.56880 | 34967 ft | 423 kts | 245° |
| 2026-05-05 22:10 | 40.56330 | -75.60216 | 34311 ft | 419 kts | 245° |
| 2026-05-05 22:11 | 40.54888 | -75.63554 | 33571 ft | 420 kts | 244° |
| 2026-05-05 22:11 | 40.53450 | -75.66881 | 32846 ft | 426 kts | 244° |
| 2026-05-05 22:11 | 40.51980 | -75.70274 | 32127 ft | 433 kts | 243° |
| 2026-05-05 22:11 | 40.50480 | -75.73730 | 31392 ft | 435 kts | 243° |
| 2026-05-05 22:12 | 40.48991 | -75.77152 | 30769 ft | 434 kts | 243° |
| 2026-05-05 22:12 | 40.47498 | -75.80582 | 30229 ft | 434 kts | 243° |
| 2026-05-05 22:12 | 40.45990 | -75.84042 | 29733 ft | 437 kts | 242° |
| 2026-05-05 22:12 | 40.44412 | -75.87425 | 29227 ft | 440 kts | 237° |
| 2026-05-05 22:13 | 40.42449 | -75.90473 | 28727 ft | 442 kts | 228° |
| 2026-05-05 22:13 | 40.40250 | -75.93318 | 28167 ft | 438 kts | 227° |
| 2026-05-05 22:13 | 40.38094 | -75.96101 | 27619 ft | 433 kts | 227° |
| 2026-05-05 22:13 | 40.35972 | -75.98818 | 27094 ft | 429 kts | 227° |
| 2026-05-05 22:14 | 40.34354 | -76.00884 | 26701 ft | 427 kts | 227° |